Haciendas de Isabela, Puerto Rico
Current Conditions -  °F | °C
As of 9:50 PM on Friday 28 Nov 2014 (Local Time) from TJBQ Reporting Station
Scattered Clouds Scattered Clouds  
Wind Chill: 75°   Ceiling: Unl
Heat Index: 75°   Visibility: 10mi
Dew Point: 70°   Wind: 3mph
Humidity: 83%   Direction: 120°ESE
Pressure: 29.99"   Gusts: NA
Location:  18.4951°N, 67.0273°W
Report Text: TJBQ 290150Z 12003KT 10SM SCT023 SCT030 24/21 A2999 RMK RWY08 ATIS E
Loading
Personal Weather Stations






























Interactive Weather Map New forecast layout! Learn more

10-Day Weather Forecast

Advertisements
Track Severe Weather on mobile